Main page
METAR-TAF:

METAR-TAF

Airports :

Cherbourg – Maupertus Airport

Cherbourg, France

latitude: 49-39N, longitude: 001-28W, elevation: 138 m

Current weather observation

The report was made 26 minutes ago, at 19:30 UTC
Wind 8 kt from the West/Southwest
Temperature 6°C
Humidity 87%
Pressure 1026 hPa
Visibility 10 km or more
Few clouds at a height of 2200 ft

METAR: LFRC 291930Z AUTO 24008KT 9999 FEW022 06/04 Q1026

Time: 20:56 (19:56 UTC)

Forecast

The report was made 5 hours and 56 minutes ago, at 14:00 UTC
Forecast valid from 29 at 15 UTC to 29 at 24 UTC
Wind 10 kt from the West
Visibility 10 km or more
Broken clouds at a height of 2000 ft
Temporary
from 29 at 15 UTC to 29 at 24 UTC
Broken clouds at a height of 1200 ft
Probability 40% :
Temporary
from 29 at 15 UTC to 29 at 24 UTC
Visibility: 4000 m
Broken clouds at a height of 700 ft
rain

TAF: LFRC 291400Z 2915/2924 27010KT 9999 BKN020 TEMPO 2915/2924 BKN012 PROB40 TEMPO 2915/2924 4000 RA BKN007

Weather observations and forecasts of more than 4000 airports (METAR and TAF reports).

The available stations are represented by yellow and red dots on the map.

Hover mouse over dot to see the name of the station.

Then click to see weather observations and forecasts.

To change the map : click on the green buttons with a black cross to zoom in, on the green button with a dash to zoom out, or on the green arrows for adjacent maps.


METAR-TAF: